Time,TemperatureF,DewpointF,PressureIn,WindDirection,WindDirectionDegrees,WindSpeedMPH,WindSpeedGustMPH,Humidity,HourlyPrecipIn,Conditions,Clouds,dailyrainin,SoftwareType,DateUTC
2013-04-26 00:03:00,58.0,-99.9,30.24,NE,42,18.0,19.0,-999,-99.99,,,-99.99,,2013-04-26 04:03:00,
2013-04-26 00:12:00,58.0,-99.9,30.24,NE,38,18.0,20.0,-999,-99.99,,,-99.99,,2013-04-26 04:12:00,
2013-04-26 00:23:00,58.0,-99.9,30.24,NE,38,17.0,20.0,-999,-99.99,,,-99.99,,2013-04-26 04:23:00,
2013-04-26 00:33:00,58.0,-99.9,30.24,NNE,27,15.0,18.0,-999,-99.99,,,-99.99,,2013-04-26 04:33:00,
2013-04-26 00:43:00,57.0,-99.9,30.24,NNE,27,13.0,15.0,-999,-99.99,,,-99.99,,2013-04-26 04:43:00,
2013-04-26 00:53:00,57.0,-99.9,30.24,NNE,25,13.0,15.0,-999,-99.99,,,-99.99,,2013-04-26 04:53:00,
2013-04-26 01:02:00,56.0,-99.9,30.24,NNE,17,13.0,14.0,-999,-99.99,,,-99.99,,2013-04-26 05:02:00,
2013-04-26 01:13:00,56.0,-99.9,30.24,NNE,19,12.0,14.0,-999,-99.99,,,-99.99,,2013-04-26 05:13:00,
2013-04-26 01:22:00,56.0,-99.9,30.24,NNE,18,11.0,13.0,-999,-99.99,,,-99.99,,2013-04-26 05:22:00,
2013-04-26 01:32:00,56.0,-99.9,30.24,NNE,25,11.0,15.0,-999,-99.99,,,-99.99,,2013-04-26 05:32:00,
2013-04-26 01:42:00,56.0,-99.9,30.23,NNE,29,14.0,16.0,-999,-99.99,,,-99.99,,2013-04-26 05:42:00,
2013-04-26 01:52:00,56.0,-99.9,30.23,NNE,29,14.0,16.0,-999,-99.99,,,-99.99,,2013-04-26 05:52:00,
2013-04-26 02:02:00,55.0,-99.9,30.24,NNE,23,12.0,14.0,-999,-99.99,,,-99.99,,2013-04-26 06:02:00,
2013-04-26 02:12:00,56.0,-99.9,30.24,NNE,30,12.0,14.0,-999,-99.99,,,-99.99,,2013-04-26 06:12:00,
2013-04-26 02:22:00,56.0,-99.9,30.24,NE,38,15.0,19.0,-999,-99.99,,,-99.99,,2013-04-26 06:22:00,
2013-04-26 02:32:00,57.0,-99.9,30.24,NE,44,17.0,18.0,-999,-99.99,,,-99.99,,2013-04-26 06:32:00,
2013-04-26 02:42:00,57.0,-99.9,30.24,NE,46,16.0,17.0,-999,-99.99,,,-99.99,,2013-04-26 06:42:00,
2013-04-26 02:52:00,57.0,-99.9,30.24,NE,46,16.0,18.0,-999,-99.99,,,-99.99,,2013-04-26 06:52:00,
2013-04-26 03:02:00,57.0,-99.9,30.24,NE,46,16.0,17.0,-999,-99.99,,,-99.99,,2013-04-26 07:02:00,
2013-04-26 03:12:00,57.0,-99.9,30.24,NE,47,17.0,18.0,-999,-99.99,,,-99.99,,2013-04-26 07:12:00,
2013-04-26 03:22:00,57.0,-99.9,30.24,NE,46,16.0,18.0,-999,-99.99,,,-99.99,,2013-04-26 07:22:00,
2013-04-26 03:32:00,57.0,-99.9,30.24,NE,42,17.0,18.0,-999,-99.99,,,-99.99,,2013-04-26 07:32:00,
2013-04-26 03:42:00,58.0,-99.9,30.24,NE,40,15.0,18.0,-999,-99.99,,,-99.99,,2013-04-26 07:42:00,
2013-04-26 03:52:00,57.0,-99.9,30.24,NE,39,16.0,18.0,-999,-99.99,,,-99.99,,2013-04-26 07:52:00,
2013-04-26 04:03:00,54.0,-99.9,30.25,NNE,18,8.0,9.0,-999,-99.99,,,-99.99,,2013-04-26 08:03:00,
2013-04-26 04:11:00,54.0,-99.9,30.24,NNE,26,9.0,10.0,-999,-99.99,,,-99.99,,2013-04-26 08:11:00,
2013-04-26 04:22:00,54.0,-99.9,30.25,NNE,33,10.0,11.0,-999,-99.99,,,-99.99,,2013-04-26 08:22:00,
2013-04-26 04:32:00,54.0,-99.9,30.25,NNE,20,6.0,8.0,-999,-99.99,,,-99.99,,2013-04-26 08:32:00,
2013-04-26 04:42:00,54.0,-99.9,30.25,North,11,6.0,7.0,-999,-99.99,,,-99.99,,2013-04-26 08:42:00,
2013-04-26 04:52:00,54.0,-99.9,30.25,NNE,21,7.0,8.0,-999,-99.99,,,-99.99,,2013-04-26 08:52:00,
2013-04-26 05:02:00,54.0,-99.9,30.25,NNE,23,6.0,8.0,-999,-99.99,,,-99.99,,2013-04-26 09:02:00,
2013-04-26 05:12:00,54.0,-99.9,30.25,NNE,24,7.0,9.0,-999,-99.99,,,-99.99,,2013-04-26 09:12:00,
2013-04-26 05:22:00,54.0,-99.9,30.26,NNW,337,6.0,10.0,-999,-99.99,,,-99.99,,2013-04-26 09:22:00,
2013-04-26 05:33:00,51.0,-99.9,30.26,NNW,330,7.0,8.0,-999,-99.99,,,-99.99,,2013-04-26 09:33:00,
2013-04-26 05:43:00,50.0,-99.9,30.26,NNW,331,7.0,9.0,-999,-99.99,,,-99.99,,2013-04-26 09:43:00,
2013-04-26 05:53:00,50.0,-99.9,30.27,NNW,330,7.0,8.0,-999,-99.99,,,-99.99,,2013-04-26 09:53:00,
2013-04-26 06:03:00,49.0,-99.9,30.27,NNW,333,6.0,7.0,-999,-99.99,,,-99.99,,2013-04-26 10:03:00,
2013-04-26 06:12:00,49.0,-99.9,30.27,North,349,5.0,6.0,-999,-99.99,,,-99.99,,2013-04-26 10:12:00,
2013-04-26 06:23:00,49.0,-99.9,30.27,North,357,7.0,9.0,-999,-99.99,,,-99.99,,2013-04-26 10:23:00,
2013-04-26 06:33:00,49.0,-99.9,30.28,North,353,7.0,9.0,-999,-99.99,,,-99.99,,2013-04-26 10:33:00,
2013-04-26 06:42:00,49.0,-99.9,30.28,North,357,6.0,8.0,-999,-99.99,,,-99.99,,2013-04-26 10:42:00,
2013-04-26 06:52:00,49.0,-99.9,30.28,North,359,6.0,7.0,-999,-99.99,,,-99.99,,2013-04-26 10:52:00,
2013-04-26 07:02:00,49.0,-99.9,30.29,North,8,7.0,8.0,-999,-99.99,,,-99.99,,2013-04-26 11:02:00,
2013-04-26 07:12:00,50.0,-99.9,30.29,North,3,7.0,8.0,-999,-99.99,,,-99.99,,2013-04-26 11:12:00,
2013-04-26 07:22:00,50.0,-99.9,30.29,North,3,7.0,9.0,-999,-99.99,,,-99.99,,2013-04-26 11:22:00,
2013-04-26 07:32:00,50.0,-99.9,30.30,North,3,7.0,8.0,-999,-99.99,,,-99.99,,2013-04-26 11:32:00,
2013-04-26 07:42:00,51.0,-99.9,30.30,North,4,7.0,8.0,-999,-99.99,,,-99.99,,2013-04-26 11:42:00,
2013-04-26 07:52:00,51.0,-99.9,30.31,North,10,9.0,10.0,-999,-99.99,,,-99.99,,2013-04-26 11:52:00,
2013-04-26 08:02:00,51.0,-99.9,30.31,North,7,8.0,10.0,-999,-99.99,,,-99.99,,2013-04-26 12:02:00,
2013-04-26 08:12:00,53.0,-99.9,30.31,NNE,19,10.0,13.0,-999,-99.99,,,-99.99,,2013-04-26 12:12:00,
2013-04-26 08:22:00,53.0,-99.9,30.31,NNE,14,10.0,12.0,-999,-99.99,,,-99.99,,2013-04-26 12:22:00,
2013-04-26 08:32:00,53.0,-99.9,30.32,NNE,22,12.0,14.0,-999,-99.99,,,-99.99,,2013-04-26 12:32:00,
2013-04-26 08:42:00,54.0,-99.9,30.32,NNE,25,11.0,13.0,-999,-99.99,,,-99.99,,2013-04-26 12:42:00,
2013-04-26 08:52:00,55.0,-99.9,30.32,NNE,29,12.0,13.0,-999,-99.99,,,-99.99,,2013-04-26 12:52:00,
2013-04-26 09:01:00,56.0,-99.9,30.33,NNE,31,13.0,15.0,-999,-99.99,,,-99.99,,2013-04-26 13:01:00,
2013-04-26 09:12:00,56.0,-99.9,30.33,NNE,32,14.0,15.0,-999,-99.99,,,-99.99,,2013-04-26 13:12:00,
2013-04-26 09:22:00,56.0,-99.9,30.34,NNE,33,14.0,16.0,-999,-99.99,,,-99.99,,2013-04-26 13:22:00,
2013-04-26 09:32:00,57.0,-99.9,30.34,NNE,33,13.0,14.0,-999,-99.99,,,-99.99,,2013-04-26 13:32:00,
2013-04-26 09:42:00,57.0,-99.9,30.35,NNE,31,16.0,18.0,-999,-99.99,,,-99.99,,2013-04-26 13:42:00,
2013-04-26 09:52:00,57.0,-99.9,30.35,NNE,30,16.0,20.0,-999,-99.99,,,-99.99,,2013-04-26 13:52:00,
2013-04-26 10:02:00,58.0,-99.9,30.35,NE,40,17.0,19.0,-999,-99.99,,,-99.99,,2013-04-26 14:02:00,
2013-04-26 10:11:00,58.0,-99.9,30.35,NE,38,17.0,19.0,-999,-99.99,,,-99.99,,2013-04-26 14:11:00,
2013-04-26 10:22:00,59.0,-99.9,30.36,NE,43,15.0,16.0,-999,-99.99,,,-99.99,,2013-04-26 14:22:00,
2013-04-26 10:32:00,59.0,-99.9,30.36,NE,46,14.0,15.0,-999,-99.99,,,-99.99,,2013-04-26 14:32:00,
2013-04-26 10:42:00,60.0,-99.9,30.37,NE,43,13.0,14.0,-999,-99.99,,,-99.99,,2013-04-26 14:42:00,
2013-04-26 10:52:00,60.0,-99.9,30.37,NE,46,13.0,15.0,-999,-99.99,,,-99.99,,2013-04-26 14:52:00,
2013-04-26 11:02:00,60.0,-99.9,30.37,NE,49,13.0,14.0,-999,-99.99,,,-99.99,,2013-04-26 15:02:00,
2013-04-26 11:12:00,60.0,-99.9,30.38,NE,51,11.0,12.0,-999,-99.99,,,-99.99,,2013-04-26 15:12:00,
2013-04-26 11:22:00,60.0,-99.9,30.38,NE,50,12.0,13.0,-999,-99.99,,,-99.99,,2013-04-26 15:22:00,
2013-04-26 11:33:00,60.0,-99.9,30.38,NE,47,10.0,11.0,-999,-99.99,,,-99.99,,2013-04-26 15:33:00,
2013-04-26 11:43:00,61.0,-99.9,30.38,NE,54,9.0,9.0,-999,-99.99,,,-99.99,,2013-04-26 15:43:00,
2013-04-26 11:53:00,61.0,-99.9,30.38,NE,56,10.0,11.0,-999,-99.99,,,-99.99,,2013-04-26 15:53:00,
2013-04-26 12:03:00,61.0,-99.9,30.38,NE,54,10.0,12.0,-999,-99.99,,,-99.99,,2013-04-26 16:03:00,
2013-04-26 12:13:00,61.0,-99.9,30.39,NE,55,10.0,11.0,-999,-99.99,,,-99.99,,2013-04-26 16:13:00,
2013-04-26 12:23:00,61.0,-99.9,30.38,ENE,60,10.0,11.0,-999,-99.99,,,-99.99,,2013-04-26 16:23:00,
2013-04-26 12:33:00,61.0,-99.9,30.38,ENE,71,12.0,14.0,-999,-99.99,,,-99.99,,2013-04-26 16:33:00,
2013-04-26 12:42:00,61.0,-99.9,30.38,ENE,73,11.0,12.0,-999,-99.99,,,-99.99,,2013-04-26 16:42:00,
2013-04-26 12:53:00,61.0,-99.9,30.37,ENE,73,11.0,13.0,-999,-99.99,,,-99.99,,2013-04-26 16:53:00,
2013-04-26 13:02:00,61.0,-99.9,30.37,East,80,11.0,12.0,-999,-99.99,,,-99.99,,2013-04-26 17:02:00,
2013-04-26 13:12:00,61.0,-99.9,30.37,East,83,12.0,13.0,-999,-99.99,,,-99.99,,2013-04-26 17:12:00,
2013-04-26 13:22:00,62.0,-99.9,30.37,ENE,78,12.0,13.0,-999,-99.99,,,-99.99,,2013-04-26 17:22:00,
2013-04-26 13:32:00,62.0,-99.9,30.36,ENE,71,10.0,12.0,-999,-99.99,,,-99.99,,2013-04-26 17:32:00,
2013-04-26 13:42:00,62.0,-99.9,30.36,ENE,73,10.0,11.0,-999,-99.99,,,-99.99,,2013-04-26 17:42:00,
2013-04-26 13:52:00,62.0,-99.9,30.35,East,88,11.0,12.0,-999,-99.99,,,-99.99,,2013-04-26 17:52:00,
2013-04-26 14:02:00,61.0,-99.9,30.35,ESE,112,11.0,12.0,-999,-99.99,,,-99.99,,2013-04-26 18:02:00,
2013-04-26 14:12:00,61.0,-99.9,30.36,East,99,8.0,9.0,-999,-99.99,,,-99.99,,2013-04-26 18:12:00,
2013-04-26 14:22:00,61.0,-99.9,30.36,East,96,9.0,11.0,-999,-99.99,,,-99.99,,2013-04-26 18:22:00,
2013-04-26 14:33:00,61.0,-99.9,30.36,ESE,102,10.0,11.0,-999,-99.99,,,-99.99,,2013-04-26 18:33:00,
2013-04-26 14:42:00,61.0,-99.9,30.35,East,98,12.0,14.0,-999,-99.99,,,-99.99,,2013-04-26 18:42:00,
2013-04-26 14:52:00,61.0,-99.9,30.35,East,99,11.0,12.0,-999,-99.99,,,-99.99,,2013-04-26 18:52:00,
2013-04-26 15:02:00,61.0,-99.9,30.35,East,97,12.0,13.0,-999,-99.99,,,-99.99,,2013-04-26 19:02:00,
2013-04-26 15:12:00,61.0,-99.9,30.35,East,96,12.0,13.0,-999,-99.99,,,-99.99,,2013-04-26 19:12:00,
2013-04-26 15:22:00,61.0,-99.9,30.36,East,96,13.0,14.0,-999,-99.99,,,-99.99,,2013-04-26 19:22:00,
2013-04-26 15:32:00,62.0,-99.9,30.36,East,100,13.0,14.0,-999,-99.99,,,-99.99,,2013-04-26 19:32:00,
2013-04-26 15:42:00,61.0,-99.9,30.35,East,101,15.0,18.0,-999,-99.99,,,-99.99,,2013-04-26 19:42:00,
2013-04-26 15:52:00,61.0,-99.9,30.35,East,101,15.0,17.0,-999,-99.99,,,-99.99,,2013-04-26 19:52:00,
2013-04-26 16:02:00,61.0,-99.9,30.35,East,99,15.0,16.0,-999,-99.99,,,-99.99,,2013-04-26 20:02:00,
2013-04-26 16:11:00,61.0,-99.9,30.34,ESE,103,14.0,16.0,-999,-99.99,,,-99.99,,2013-04-26 20:11:00,
2013-04-26 16:22:00,61.0,-99.9,30.34,East,100,15.0,16.0,-999,-99.99,,,-99.99,,2013-04-26 20:22:00,
2013-04-26 16:32:00,61.0,-99.9,30.34,East,99,13.0,15.0,-999,-99.99,,,-99.99,,2013-04-26 20:32:00,
2013-04-26 16:42:00,61.0,-99.9,30.33,East,93,14.0,16.0,-999,-99.99,,,-99.99,,2013-04-26 20:42:00,
2013-04-26 16:52:00,61.0,-99.9,30.33,East,94,13.0,15.0,-999,-99.99,,,-99.99,,2013-04-26 20:52:00,
2013-04-26 17:02:00,61.0,-99.9,30.33,ESE,103,14.0,15.0,-999,-99.99,,,-99.99,,2013-04-26 21:02:00,
2013-04-26 17:11:00,61.0,-99.9,30.32,East,100,14.0,15.0,-999,-99.99,,,-99.99,,2013-04-26 21:11:00,
2013-04-26 17:22:00,61.0,-99.9,30.32,East,99,13.0,15.0,-999,-99.99,,,-99.99,,2013-04-26 21:22:00,
2013-04-26 17:33:00,61.0,-99.9,30.32,East,96,12.0,14.0,-999,-99.99,,,-99.99,,2013-04-26 21:33:00,
2013-04-26 17:42:00,61.0,-99.9,30.32,East,95,13.0,15.0,-999,-99.99,,,-99.99,,2013-04-26 21:42:00,
2013-04-26 17:53:00,61.0,-99.9,30.32,East,94,13.0,14.0,-999,-99.99,,,-99.99,,2013-04-26 21:53:00,
2013-04-26 18:03:00,61.0,-99.9,30.33,East,91,12.0,14.0,-999,-99.99,,,-99.99,,2013-04-26 22:03:00,
2013-04-26 18:13:00,61.0,-99.9,30.33,East,88,11.0,13.0,-999,-99.99,,,-99.99,,2013-04-26 22:13:00,
2013-04-26 18:23:00,61.0,-99.9,30.32,East,94,13.0,14.0,-999,-99.99,,,-99.99,,2013-04-26 22:23:00,
2013-04-26 18:33:00,61.0,-99.9,30.32,East,91,13.0,14.0,-999,-99.99,,,-99.99,,2013-04-26 22:33:00,
2013-04-26 18:42:00,61.0,-99.9,30.32,East,95,12.0,14.0,-999,-99.99,,,-99.99,,2013-04-26 22:42:00,
2013-04-26 18:52:00,61.0,-99.9,30.32,East,98,13.0,14.0,-999,-99.99,,,-99.99,,2013-04-26 22:52:00,
2013-04-26 19:02:00,61.0,-99.9,30.32,East,93,15.0,17.0,-999,-99.99,,,-99.99,,2013-04-26 23:02:00,
2013-04-26 19:12:00,61.0,-99.9,30.32,East,98,14.0,16.0,-999,-99.99,,,-99.99,,2013-04-26 23:12:00,
2013-04-26 19:22:00,61.0,-99.9,30.32,East,98,14.0,16.0,-999,-99.99,,,-99.99,,2013-04-26 23:22:00,
2013-04-26 19:32:00,61.0,-99.9,30.32,East,100,15.0,17.0,-999,-99.99,,,-99.99,,2013-04-26 23:32:00,
2013-04-26 19:42:00,61.0,-99.9,30.32,East,99,14.0,15.0,-999,-99.99,,,-99.99,,2013-04-26 23:42:00,
2013-04-26 19:52:00,61.0,-99.9,30.32,East,99,14.0,16.0,-999,-99.99,,,-99.99,,2013-04-26 23:52:00,
2013-04-26 20:01:00,61.0,-99.9,30.32,East,99,14.0,16.0,-999,-99.99,,,-99.99,,2013-04-27 00:01:00,
2013-04-26 20:12:00,61.0,-99.9,30.33,East,90,14.0,16.0,-999,-99.99,,,-99.99,,2013-04-27 00:12:00,
2013-04-26 20:22:00,61.0,-99.9,30.33,East,91,14.0,17.0,-999,-99.99,,,-99.99,,2013-04-27 00:22:00,
2013-04-26 20:32:00,61.0,-99.9,30.33,East,92,14.0,17.0,-999,-99.99,,,-99.99,,2013-04-27 00:32:00,
2013-04-26 20:42:00,61.0,-99.9,30.34,East,90,13.0,15.0,-999,-99.99,,,-99.99,,2013-04-27 00:42:00,
2013-04-26 20:52:00,61.0,-99.9,30.35,East,90,13.0,16.0,-999,-99.99,,,-99.99,,2013-04-27 00:52:00,
2013-04-26 21:01:00,61.0,-99.9,30.35,East,91,12.0,14.0,-999,-99.99,,,-99.99,,2013-04-27 01:01:00,
2013-04-26 21:12:00,61.0,-99.9,30.36,East,88,15.0,16.0,-999,-99.99,,,-99.99,,2013-04-27 01:12:00,
2013-04-26 21:21:00,61.0,-99.9,30.36,East,86,14.0,15.0,-999,-99.99,,,-99.99,,2013-04-27 01:21:00,
2013-04-26 21:32:00,61.0,-99.9,30.36,East,89,14.0,16.0,-999,-99.99,,,-99.99,,2013-04-27 01:32:00,
2013-04-26 21:42:00,60.0,-99.9,30.36,East,90,14.0,16.0,-999,-99.99,,,-99.99,,2013-04-27 01:42:00,
2013-04-26 21:52:00,60.0,-99.9,30.37,East,83,14.0,15.0,-999,-99.99,,,-99.99,,2013-04-27 01:52:00,
2013-04-26 22:02:00,60.0,-99.9,30.37,East,83,13.0,15.0,-999,-99.99,,,-99.99,,2013-04-27 02:02:00,
2013-04-26 22:11:00,60.0,-99.9,30.38,East,83,13.0,15.0,-999,-99.99,,,-99.99,,2013-04-27 02:11:00,
2013-04-26 22:22:00,60.0,-99.9,30.38,East,87,14.0,16.0,-999,-99.99,,,-99.99,,2013-04-27 02:22:00,
2013-04-26 22:32:00,60.0,-99.9,30.37,East,87,13.0,15.0,-999,-99.99,,,-99.99,,2013-04-27 02:32:00,
2013-04-26 22:42:00,60.0,-99.9,30.38,East,85,13.0,15.0,-999,-99.99,,,-99.99,,2013-04-27 02:42:00,
2013-04-26 22:52:00,60.0,-99.9,30.37,East,83,13.0,15.0,-999,-99.99,,,-99.99,,2013-04-27 02:52:00,
2013-04-26 23:02:00,60.0,-99.9,30.37,East,80,12.0,14.0,-999,-99.99,,,-99.99,,2013-04-27 03:02:00,
2013-04-26 23:11:00,60.0,-99.9,30.37,East,82,13.0,14.0,-999,-99.99,,,-99.99,,2013-04-27 03:11:00,
2013-04-26 23:22:00,60.0,-99.9,30.37,East,85,13.0,14.0,-999,-99.99,,,-99.99,,2013-04-27 03:22:00,
2013-04-26 23:33:00,60.0,-99.9,30.36,East,87,12.0,14.0,-999,-99.99,,,-99.99,,2013-04-27 03:33:00,
2013-04-26 23:43:00,60.0,-99.9,30.36,ENE,78,11.0,13.0,-999,-99.99,,,-99.99,,2013-04-27 03:43:00,
2013-04-26 23:53:00,60.0,-99.9,30.36,ENE,76,11.0,13.0,-999,-99.99,,,-99.99,,2013-04-27 03:53:00,